<?xml version="1.0" encoding="UTF-8" standalone="no" ?>
<gpx xmlns="http://www.topografix.com/GPX/1/1" xmlns:xsi="http://www.w3.org/2001/XMLSchema-instance" xsi:schemaLocation="http://www.topografix.com/GPX/1/1 http://www.topografix.com/GPX/1/1/gpx.xsd" version="1.1" creator="VisuGPX - https://www.visugpx.com">
  <metadata>
    <name>Trail du Couserans</name>
    <desc><![CDATA[Tour de la table des 4 seigneurs ]]></desc>
  </metadata>
  <wpt lat="42.95433" lon="1.15035">
    <ele>694.4</ele>
    <name><![CDATA[Ravitaillement]]></name>
  </wpt>
  <wpt lat="42.94169" lon="1.11794">
    <ele>953.7</ele>
    <name><![CDATA[Ravitaillement]]></name>
  </wpt>
  <wpt lat="42.98194" lon="1.15595">
    <ele>457.1</ele>
    <name><![CDATA[Ravitaillement]]></name>
  </wpt>
  <wpt lat="42.95858" lon="1.15296">
    <ele>661.4</ele>
    <name><![CDATA[Secours mobile]]></name>
  </wpt>
  <wpt lat="42.93048" lon="1.14616">
    <ele>1200.6</ele>
    <name><![CDATA[Signaleur avec permis]]></name>
  </wpt>
  <wpt lat="42.93514" lon="1.13741">
    <ele>1210.4</ele>
    <name><![CDATA[Signaleur avec permis]]></name>
  </wpt>
  <wpt lat="42.93824" lon="1.13051">
    <ele>1124.1</ele>
    <name><![CDATA[Signaleur avec permis]]></name>
  </wpt>
  <wpt lat="42.93891" lon="1.11846">
    <ele>891.5</ele>
    <name><![CDATA[Signaleur avec permis]]></name>
  </wpt>
  <wpt lat="42.94119" lon="1.11411">
    <ele>796.8</ele>
    <name><![CDATA[Signaleur avec permis]]></name>
  </wpt>
  <wpt lat="42.95846" lon="1.15655">
    <ele>607.2</ele>
    <name><![CDATA[Signaleur avec permis]]></name>
  </wpt>
  <wpt lat="42.94651" lon="1.13815">
    <ele>816.4</ele>
    <name><![CDATA[Signaleur avec permis]]></name>
  </wpt>
  <wpt lat="42.95671" lon="1.13758">
    <ele>733</ele>
    <name><![CDATA[Signaleur avec permis]]></name>
  </wpt>
  <wpt lat="42.95478" lon="1.15083">
    <ele>696.3</ele>
    <name><![CDATA[Signaleur]]></name>
  </wpt>
  <trk>
    <name><![CDATA[LES 4 SEIGNEURS NEW  T.C 2025        23 KM D+896 m-20503096]]></name>
    <extensions>
      <line xmlns="http://www.topografix.com/GPX/gpx_style/0/2">
        <color>0000FF</color>
        <width>4</width>
      </line>
    </extensions>
    <trkseg>
      <trkpt lat="42.98156" lon="1.15206">
        <ele>396</ele>
        <time>2025-11-03T19:52:48Z</time>
      </trkpt>
      <trkpt lat="42.97968" lon="1.15374">
        <ele>398</ele>
        <time>2025-11-03T19:54:40Z</time>
      </trkpt>
      <trkpt lat="42.98018" lon="1.15475">
        <ele>402</ele>
        <time>2025-11-03T19:55:25Z</time>
      </trkpt>
      <trkpt lat="42.97971" lon="1.1557">
        <ele>407</ele>
        <time>2025-11-03T19:56:07Z</time>
      </trkpt>
      <trkpt lat="42.97941" lon="1.15635">
        <ele>418</ele>
        <time>2025-11-03T19:56:35Z</time>
      </trkpt>
      <trkpt lat="42.97881" lon="1.15631">
        <ele>416</ele>
        <time>2025-11-03T19:57:05Z</time>
      </trkpt>
      <trkpt lat="42.97687" lon="1.15592">
        <ele>404</ele>
        <time>2025-11-03T19:58:43Z</time>
      </trkpt>
      <trkpt lat="42.97682" lon="1.15579">
        <ele>403</ele>
        <time>2025-11-03T19:58:49Z</time>
      </trkpt>
      <trkpt lat="42.97686" lon="1.15492">
        <ele>400</ele>
        <time>2025-11-03T19:59:21Z</time>
      </trkpt>
      <trkpt lat="42.97695" lon="1.15457">
        <ele>400</ele>
        <time>2025-11-03T19:59:34Z</time>
      </trkpt>
      <trkpt lat="42.97669" lon="1.15326">
        <ele>400</ele>
        <time>2025-11-03T20:00:24Z</time>
      </trkpt>
      <trkpt lat="42.97661" lon="1.15269">
        <ele>400</ele>
        <time>2025-11-03T20:00:45Z</time>
      </trkpt>
      <trkpt lat="42.9766" lon="1.15213">
        <ele>399</ele>
        <time>2025-11-03T20:01:06Z</time>
      </trkpt>
      <trkpt lat="42.97636" lon="1.15182">
        <ele>398</ele>
        <time>2025-11-03T20:01:22Z</time>
      </trkpt>
      <trkpt lat="42.97578" lon="1.15204">
        <ele>397</ele>
        <time>2025-11-03T20:01:52Z</time>
      </trkpt>
      <trkpt lat="42.97573" lon="1.15204">
        <ele>397</ele>
        <time>2025-11-03T20:01:55Z</time>
      </trkpt>
      <trkpt lat="42.97575" lon="1.153">
        <ele>397</ele>
        <time>2025-11-03T20:02:30Z</time>
      </trkpt>
      <trkpt lat="42.97576" lon="1.15358">
        <ele>398</ele>
        <time>2025-11-03T20:02:51Z</time>
      </trkpt>
      <trkpt lat="42.97574" lon="1.15399">
        <ele>399</ele>
        <time>2025-11-03T20:03:06Z</time>
      </trkpt>
      <trkpt lat="42.97579" lon="1.15463">
        <ele>400</ele>
        <time>2025-11-03T20:03:30Z</time>
      </trkpt>
      <trkpt lat="42.97588" lon="1.15579">
        <ele>402</ele>
        <time>2025-11-03T20:04:13Z</time>
      </trkpt>
      <trkpt lat="42.97589" lon="1.15658">
        <ele>401</ele>
        <time>2025-11-03T20:04:41Z</time>
      </trkpt>
      <trkpt lat="42.97579" lon="1.15758">
        <ele>400</ele>
        <time>2025-11-03T20:05:18Z</time>
      </trkpt>
      <trkpt lat="42.9757" lon="1.15833">
        <ele>401</ele>
        <time>2025-11-03T20:05:46Z</time>
      </trkpt>
      <trkpt lat="42.97541" lon="1.1597">
        <ele>404</ele>
        <time>2025-11-03T20:06:38Z</time>
      </trkpt>
      <trkpt lat="42.97504" lon="1.16065">
        <ele>402</ele>
        <time>2025-11-03T20:07:18Z</time>
      </trkpt>
      <trkpt lat="42.97382" lon="1.16159">
        <ele>401</ele>
        <time>2025-11-03T20:08:28Z</time>
      </trkpt>
      <trkpt lat="42.97278" lon="1.16225">
        <ele>403</ele>
        <time>2025-11-03T20:09:25Z</time>
      </trkpt>
      <trkpt lat="42.97229" lon="1.16275">
        <ele>404</ele>
        <time>2025-11-03T20:09:56Z</time>
      </trkpt>
      <trkpt lat="42.97211" lon="1.16283">
        <ele>404</ele>
        <time>2025-11-03T20:10:05Z</time>
      </trkpt>
      <trkpt lat="42.97148" lon="1.16323">
        <ele>404</ele>
        <time>2025-11-03T20:10:40Z</time>
      </trkpt>
      <trkpt lat="42.97129" lon="1.16342">
        <ele>404</ele>
        <time>2025-11-03T20:10:52Z</time>
      </trkpt>
      <trkpt lat="42.97112" lon="1.16304">
        <ele>404</ele>
        <time>2025-11-03T20:11:08Z</time>
      </trkpt>
      <trkpt lat="42.971" lon="1.16284">
        <ele>404</ele>
        <time>2025-11-03T20:11:18Z</time>
      </trkpt>
      <trkpt lat="42.97082" lon="1.16317">
        <ele>405</ele>
        <time>2025-11-03T20:11:33Z</time>
      </trkpt>
      <trkpt lat="42.96945" lon="1.16193">
        <ele>408</ele>
        <time>2025-11-03T20:12:55Z</time>
      </trkpt>
      <trkpt lat="42.96929" lon="1.16195">
        <ele>408</ele>
        <time>2025-11-03T20:13:03Z</time>
      </trkpt>
      <trkpt lat="42.96771" lon="1.16033">
        <ele>409</ele>
        <time>2025-11-03T20:14:42Z</time>
      </trkpt>
      <trkpt lat="42.96756" lon="1.1601">
        <ele>410</ele>
        <time>2025-11-03T20:14:53Z</time>
      </trkpt>
      <trkpt lat="42.96793" lon="1.15952">
        <ele>408</ele>
        <time>2025-11-03T20:15:21Z</time>
      </trkpt>
      <trkpt lat="42.96748" lon="1.15907">
        <ele>410</ele>
        <time>2025-11-03T20:15:49Z</time>
      </trkpt>
      <trkpt lat="42.96723" lon="1.15857">
        <ele>413</ele>
        <time>2025-11-03T20:16:11Z</time>
      </trkpt>
      <trkpt lat="42.96612" lon="1.15987">
        <ele>423</ele>
        <time>2025-11-03T20:17:25Z</time>
      </trkpt>
      <trkpt lat="42.96599" lon="1.15966">
        <ele>425</ele>
        <time>2025-11-03T20:17:35Z</time>
      </trkpt>
      <trkpt lat="42.96587" lon="1.15936">
        <ele>426</ele>
        <time>2025-11-03T20:17:47Z</time>
      </trkpt>
      <trkpt lat="42.96573" lon="1.15871">
        <ele>433</ele>
        <time>2025-11-03T20:18:12Z</time>
      </trkpt>
      <trkpt lat="42.96544" lon="1.15833">
        <ele>441</ele>
        <time>2025-11-03T20:18:32Z</time>
      </trkpt>
      <trkpt lat="42.96546" lon="1.15734">
        <ele>456</ele>
        <time>2025-11-03T20:19:08Z</time>
      </trkpt>
      <trkpt lat="42.96537" lon="1.15706">
        <ele>463</ele>
        <time>2025-11-03T20:19:20Z</time>
      </trkpt>
      <trkpt lat="42.9651" lon="1.15678">
        <ele>474</ele>
        <time>2025-11-03T20:19:37Z</time>
      </trkpt>
      <trkpt lat="42.96472" lon="1.15646">
        <ele>490</ele>
        <time>2025-11-03T20:19:59Z</time>
      </trkpt>
      <trkpt lat="42.96439" lon="1.15618">
        <ele>501</ele>
        <time>2025-11-03T20:20:18Z</time>
      </trkpt>
      <trkpt lat="42.96422" lon="1.1559">
        <ele>509</ele>
        <time>2025-11-03T20:20:32Z</time>
      </trkpt>
      <trkpt lat="42.96405" lon="1.1555">
        <ele>521</ele>
        <time>2025-11-03T20:20:49Z</time>
      </trkpt>
      <trkpt lat="42.96442" lon="1.15584">
        <ele>514</ele>
        <time>2025-11-03T20:21:11Z</time>
      </trkpt>
      <trkpt lat="42.96464" lon="1.15596">
        <ele>512</ele>
        <time>2025-11-03T20:21:23Z</time>
      </trkpt>
      <trkpt lat="42.96513" lon="1.1558">
        <ele>522</ele>
        <time>2025-11-03T20:21:48Z</time>
      </trkpt>
      <trkpt lat="42.96609" lon="1.15502">
        <ele>540</ele>
        <time>2025-11-03T20:22:44Z</time>
      </trkpt>
      <trkpt lat="42.96796" lon="1.15251">
        <ele>541</ele>
        <time>2025-11-03T20:24:55Z</time>
      </trkpt>
      <trkpt lat="42.96814" lon="1.15193">
        <ele>540</ele>
        <time>2025-11-03T20:25:18Z</time>
      </trkpt>
      <trkpt lat="42.96788" lon="1.15097">
        <ele>554</ele>
        <time>2025-11-03T20:25:56Z</time>
      </trkpt>
      <trkpt lat="42.96777" lon="1.15062">
        <ele>557</ele>
        <time>2025-11-03T20:26:10Z</time>
      </trkpt>
      <trkpt lat="42.96764" lon="1.15028">
        <ele>560</ele>
        <time>2025-11-03T20:26:24Z</time>
      </trkpt>
      <trkpt lat="42.9675" lon="1.15009">
        <ele>564</ele>
        <time>2025-11-03T20:26:33Z</time>
      </trkpt>
      <trkpt lat="42.96728" lon="1.1499">
        <ele>569</ele>
        <time>2025-11-03T20:26:46Z</time>
      </trkpt>
      <trkpt lat="42.96703" lon="1.14966">
        <ele>574</ele>
        <time>2025-11-03T20:27:02Z</time>
      </trkpt>
      <trkpt lat="42.96681" lon="1.14908">
        <ele>577</ele>
        <time>2025-11-03T20:27:26Z</time>
      </trkpt>
      <trkpt lat="42.96642" lon="1.1491">
        <ele>585</ele>
        <time>2025-11-03T20:27:45Z</time>
      </trkpt>
      <trkpt lat="42.96599" lon="1.14934">
        <ele>593</ele>
        <time>2025-11-03T20:28:08Z</time>
      </trkpt>
      <trkpt lat="42.9656" lon="1.14945">
        <ele>598</ele>
        <time>2025-11-03T20:28:28Z</time>
      </trkpt>
      <trkpt lat="42.96543" lon="1.1494">
        <ele>601</ele>
        <time>2025-11-03T20:28:37Z</time>
      </trkpt>
      <trkpt lat="42.96519" lon="1.1493">
        <ele>605</ele>
        <time>2025-11-03T20:28:50Z</time>
      </trkpt>
      <trkpt lat="42.9646" lon="1.1494">
        <ele>613</ele>
        <time>2025-11-03T20:29:19Z</time>
      </trkpt>
      <trkpt lat="42.96422" lon="1.14947">
        <ele>620</ele>
        <time>2025-11-03T20:29:39Z</time>
      </trkpt>
      <trkpt lat="42.96399" lon="1.14974">
        <ele>625</ele>
        <time>2025-11-03T20:29:54Z</time>
      </trkpt>
      <trkpt lat="42.96376" lon="1.14992">
        <ele>629</ele>
        <time>2025-11-03T20:30:07Z</time>
      </trkpt>
      <trkpt lat="42.96337" lon="1.15009">
        <ele>633</ele>
        <time>2025-11-03T20:30:28Z</time>
      </trkpt>
      <trkpt lat="42.96292" lon="1.1503">
        <ele>637</ele>
        <time>2025-11-03T20:30:51Z</time>
      </trkpt>
      <trkpt lat="42.96252" lon="1.15047">
        <ele>638</ele>
        <time>2025-11-03T20:31:12Z</time>
      </trkpt>
      <trkpt lat="42.96216" lon="1.15075">
        <ele>637</ele>
        <time>2025-11-03T20:31:33Z</time>
      </trkpt>
      <trkpt lat="42.96173" lon="1.15076">
        <ele>635</ele>
        <time>2025-11-03T20:31:55Z</time>
      </trkpt>
      <trkpt lat="42.96161" lon="1.15083">
        <ele>636</ele>
        <time>2025-11-03T20:32:01Z</time>
      </trkpt>
      <trkpt lat="42.96122" lon="1.15071">
        <ele>642</ele>
        <time>2025-11-03T20:32:21Z</time>
      </trkpt>
      <trkpt lat="42.96103" lon="1.15022">
        <ele>646</ele>
        <time>2025-11-03T20:32:41Z</time>
      </trkpt>
      <trkpt lat="42.9608" lon="1.15056">
        <ele>649</ele>
        <time>2025-11-03T20:32:58Z</time>
      </trkpt>
      <trkpt lat="42.96072" lon="1.15058">
        <ele>650</ele>
        <time>2025-11-03T20:33:02Z</time>
      </trkpt>
      <trkpt lat="42.96025" lon="1.15098">
        <ele>655</ele>
        <time>2025-11-03T20:33:30Z</time>
      </trkpt>
      <trkpt lat="42.96029" lon="1.15073">
        <ele>656</ele>
        <time>2025-11-03T20:33:39Z</time>
      </trkpt>
      <trkpt lat="42.96027" lon="1.15056">
        <ele>657</ele>
        <time>2025-11-03T20:33:46Z</time>
      </trkpt>
      <trkpt lat="42.96009" lon="1.1503">
        <ele>662</ele>
        <time>2025-11-03T20:33:59Z</time>
      </trkpt>
      <trkpt lat="42.95992" lon="1.15009">
        <ele>666</ele>
        <time>2025-11-03T20:34:10Z</time>
      </trkpt>
      <trkpt lat="42.95949" lon="1.14981">
        <ele>669</ele>
        <time>2025-11-03T20:34:34Z</time>
      </trkpt>
      <trkpt lat="42.95907" lon="1.14964">
        <ele>675</ele>
        <time>2025-11-03T20:34:56Z</time>
      </trkpt>
      <trkpt lat="42.95875" lon="1.14974">
        <ele>675</ele>
        <time>2025-11-03T20:35:13Z</time>
      </trkpt>
      <trkpt lat="42.95873" lon="1.14984">
        <ele>674</ele>
        <time>2025-11-03T20:35:16Z</time>
      </trkpt>
      <trkpt lat="42.95831" lon="1.14988">
        <ele>675</ele>
        <time>2025-11-03T20:35:37Z</time>
      </trkpt>
      <trkpt lat="42.95813" lon="1.14959">
        <ele>682</ele>
        <time>2025-11-03T20:35:51Z</time>
      </trkpt>
      <trkpt lat="42.95784" lon="1.14917">
        <ele>692</ele>
        <time>2025-11-03T20:36:12Z</time>
      </trkpt>
      <trkpt lat="42.95769" lon="1.1491">
        <ele>694</ele>
        <time>2025-11-03T20:36:20Z</time>
      </trkpt>
      <trkpt lat="42.95753" lon="1.14913">
        <ele>693</ele>
        <time>2025-11-03T20:36:28Z</time>
      </trkpt>
      <trkpt lat="42.95737" lon="1.14925">
        <ele>693</ele>
        <time>2025-11-03T20:36:38Z</time>
      </trkpt>
      <trkpt lat="42.95713" lon="1.1494">
        <ele>694</ele>
        <time>2025-11-03T20:36:51Z</time>
      </trkpt>
      <trkpt lat="42.95702" lon="1.14945">
        <ele>696</ele>
        <time>2025-11-03T20:36:57Z</time>
      </trkpt>
      <trkpt lat="42.95681" lon="1.14949">
        <ele>699</ele>
        <time>2025-11-03T20:37:07Z</time>
      </trkpt>
      <trkpt lat="42.95654" lon="1.14951">
        <ele>704</ele>
        <time>2025-11-03T20:37:21Z</time>
      </trkpt>
      <trkpt lat="42.95658" lon="1.14925">
        <ele>709</ele>
        <time>2025-11-03T20:37:31Z</time>
      </trkpt>
      <trkpt lat="42.95613" lon="1.14936">
        <ele>714</ele>
        <time>2025-11-03T20:37:53Z</time>
      </trkpt>
      <trkpt lat="42.95574" lon="1.14908">
        <ele>724</ele>
        <time>2025-11-03T20:38:15Z</time>
      </trkpt>
      <trkpt lat="42.95543" lon="1.14887">
        <ele>729</ele>
        <time>2025-11-03T20:38:33Z</time>
      </trkpt>
      <trkpt lat="42.95526" lon="1.14898">
        <ele>726</ele>
        <time>2025-11-03T20:38:42Z</time>
      </trkpt>
      <trkpt lat="42.95508" lon="1.14899">
        <ele>726</ele>
        <time>2025-11-03T20:38:51Z</time>
      </trkpt>
      <trkpt lat="42.95488" lon="1.14932">
        <ele>718</ele>
        <time>2025-11-03T20:39:07Z</time>
      </trkpt>
      <trkpt lat="42.95479" lon="1.14953">
        <ele>713</ele>
        <time>2025-11-03T20:39:16Z</time>
      </trkpt>
      <trkpt lat="42.95468" lon="1.14963">
        <ele>709</ele>
        <time>2025-11-03T20:39:22Z</time>
      </trkpt>
      <trkpt lat="42.9545" lon="1.1497">
        <ele>704</ele>
        <time>2025-11-03T20:39:32Z</time>
      </trkpt>
      <trkpt lat="42.95442" lon="1.14942">
        <ele>705</ele>
        <time>2025-11-03T20:39:43Z</time>
      </trkpt>
      <trkpt lat="42.95429" lon="1.14884">
        <ele>707</ele>
        <time>2025-11-03T20:40:05Z</time>
      </trkpt>
      <trkpt lat="42.95423" lon="1.14824">
        <ele>709</ele>
        <time>2025-11-03T20:40:27Z</time>
      </trkpt>
      <trkpt lat="42.9542" lon="1.14756">
        <ele>711</ele>
        <time>2025-11-03T20:40:52Z</time>
      </trkpt>
      <trkpt lat="42.95421" lon="1.14727">
        <ele>714</ele>
        <time>2025-11-03T20:41:03Z</time>
      </trkpt>
      <trkpt lat="42.95411" lon="1.14663">
        <ele>715</ele>
        <time>2025-11-03T20:41:27Z</time>
      </trkpt>
      <trkpt lat="42.95379" lon="1.14556">
        <ele>712</ele>
        <time>2025-11-03T20:42:09Z</time>
      </trkpt>
      <trkpt lat="42.95351" lon="1.14464">
        <ele>716</ele>
        <time>2025-11-03T20:42:46Z</time>
      </trkpt>
      <trkpt lat="42.95323" lon="1.14438">
        <ele>716</ele>
        <time>2025-11-03T20:43:02Z</time>
      </trkpt>
      <trkpt lat="42.95309" lon="1.14447">
        <ele>718</ele>
        <time>2025-11-03T20:43:10Z</time>
      </trkpt>
      <trkpt lat="42.95298" lon="1.14459">
        <ele>717</ele>
        <time>2025-11-03T20:43:17Z</time>
      </trkpt>
      <trkpt lat="42.95265" lon="1.14495">
        <ele>714</ele>
        <time>2025-11-03T20:43:38Z</time>
      </trkpt>
      <trkpt lat="42.95244" lon="1.14509">
        <ele>713</ele>
        <time>2025-11-03T20:43:50Z</time>
      </trkpt>
      <trkpt lat="42.95214" lon="1.14517">
        <ele>720</ele>
        <time>2025-11-03T20:44:05Z</time>
      </trkpt>
      <trkpt lat="42.9518" lon="1.14536">
        <ele>725</ele>
        <time>2025-11-03T20:44:24Z</time>
      </trkpt>
      <trkpt lat="42.95164" lon="1.14546">
        <ele>727</ele>
        <time>2025-11-03T20:44:33Z</time>
      </trkpt>
      <trkpt lat="42.95151" lon="1.14565">
        <ele>727</ele>
        <time>2025-11-03T20:44:42Z</time>
      </trkpt>
      <trkpt lat="42.95146" lon="1.14597">
        <ele>725</ele>
        <time>2025-11-03T20:44:54Z</time>
      </trkpt>
      <trkpt lat="42.95137" lon="1.14682">
        <ele>726</ele>
        <time>2025-11-03T20:45:26Z</time>
      </trkpt>
      <trkpt lat="42.95129" lon="1.14718">
        <ele>727</ele>
        <time>2025-11-03T20:45:39Z</time>
      </trkpt>
      <trkpt lat="42.95117" lon="1.14753">
        <ele>729</ele>
        <time>2025-11-03T20:45:53Z</time>
      </trkpt>
      <trkpt lat="42.95108" lon="1.14777">
        <ele>729</ele>
        <time>2025-11-03T20:46:03Z</time>
      </trkpt>
      <trkpt lat="42.95092" lon="1.14818">
        <ele>727</ele>
        <time>2025-11-03T20:46:20Z</time>
      </trkpt>
      <trkpt lat="42.95051" lon="1.14878">
        <ele>731</ele>
        <time>2025-11-03T20:46:50Z</time>
      </trkpt>
      <trkpt lat="42.94999" lon="1.14932">
        <ele>740</ele>
        <time>2025-11-03T20:47:23Z</time>
      </trkpt>
      <trkpt lat="42.94952" lon="1.14987">
        <ele>744</ele>
        <time>2025-11-03T20:47:54Z</time>
      </trkpt>
      <trkpt lat="42.94919" lon="1.15022">
        <ele>747</ele>
        <time>2025-11-03T20:48:15Z</time>
      </trkpt>
      <trkpt lat="42.94895" lon="1.15036">
        <ele>751</ele>
        <time>2025-11-03T20:48:28Z</time>
      </trkpt>
      <trkpt lat="42.94881" lon="1.15065">
        <ele>745</ele>
        <time>2025-11-03T20:48:41Z</time>
      </trkpt>
      <trkpt lat="42.94847" lon="1.15088">
        <ele>748</ele>
        <time>2025-11-03T20:49:00Z</time>
      </trkpt>
      <trkpt lat="42.94825" lon="1.1509">
        <ele>754</ele>
        <time>2025-11-03T20:49:11Z</time>
      </trkpt>
      <trkpt lat="42.94791" lon="1.151">
        <ele>757</ele>
        <time>2025-11-03T20:49:28Z</time>
      </trkpt>
      <trkpt lat="42.94738" lon="1.15135">
        <ele>768</ele>
        <time>2025-11-03T20:49:58Z</time>
      </trkpt>
      <trkpt lat="42.94726" lon="1.15167">
        <ele>773</ele>
        <time>2025-11-03T20:50:11Z</time>
      </trkpt>
      <trkpt lat="42.9471" lon="1.15187">
        <ele>776</ele>
        <time>2025-11-03T20:50:22Z</time>
      </trkpt>
      <trkpt lat="42.94702" lon="1.15209">
        <ele>776</ele>
        <time>2025-11-03T20:50:31Z</time>
      </trkpt>
      <trkpt lat="42.94676" lon="1.15247">
        <ele>777</ele>
        <time>2025-11-03T20:50:50Z</time>
      </trkpt>
      <trkpt lat="42.94641" lon="1.15268">
        <ele>769</ele>
        <time>2025-11-03T20:51:09Z</time>
      </trkpt>
      <trkpt lat="42.94606" lon="1.15256">
        <ele>771</ele>
        <time>2025-11-03T20:51:27Z</time>
      </trkpt>
      <trkpt lat="42.94544" lon="1.15226">
        <ele>770</ele>
        <time>2025-11-03T20:52:00Z</time>
      </trkpt>
      <trkpt lat="42.94482" lon="1.15196">
        <ele>768</ele>
        <time>2025-11-03T20:52:33Z</time>
      </trkpt>
      <trkpt lat="42.94404" lon="1.15174">
        <ele>764</ele>
        <time>2025-11-03T20:53:13Z</time>
      </trkpt>
      <trkpt lat="42.94349" lon="1.15148">
        <ele>771</ele>
        <time>2025-11-03T20:53:42Z</time>
      </trkpt>
      <trkpt lat="42.94286" lon="1.15159">
        <ele>782</ele>
        <time>2025-11-03T20:54:14Z</time>
      </trkpt>
      <trkpt lat="42.94239" lon="1.15187">
        <ele>785</ele>
        <time>2025-11-03T20:54:39Z</time>
      </trkpt>
      <trkpt lat="42.94168" lon="1.15228">
        <ele>791</ele>
        <time>2025-11-03T20:55:18Z</time>
      </trkpt>
      <trkpt lat="42.94083" lon="1.15268">
        <ele>804</ele>
        <time>2025-11-03T20:56:03Z</time>
      </trkpt>
      <trkpt lat="42.94" lon="1.15311">
        <ele>817</ele>
        <time>2025-11-03T20:56:47Z</time>
      </trkpt>
      <trkpt lat="42.94005" lon="1.15318">
        <ele>815</ele>
        <time>2025-11-03T20:56:51Z</time>
      </trkpt>
      <trkpt lat="42.9401" lon="1.15344">
        <ele>812</ele>
        <time>2025-11-03T20:57:01Z</time>
      </trkpt>
      <trkpt lat="42.94019" lon="1.15389">
        <ele>808</ele>
        <time>2025-11-03T20:57:18Z</time>
      </trkpt>
      <trkpt lat="42.94024" lon="1.1544">
        <ele>807</ele>
        <time>2025-11-03T20:57:37Z</time>
      </trkpt>
      <trkpt lat="42.9401" lon="1.15459">
        <ele>812</ele>
        <time>2025-11-03T20:57:46Z</time>
      </trkpt>
      <trkpt lat="42.93994" lon="1.15472">
        <ele>816</ele>
        <time>2025-11-03T20:57:56Z</time>
      </trkpt>
      <trkpt lat="42.93973" lon="1.15466">
        <ele>818</ele>
        <time>2025-11-03T20:58:06Z</time>
      </trkpt>
      <trkpt lat="42.93944" lon="1.15451">
        <ele>821</ele>
        <time>2025-11-03T20:58:22Z</time>
      </trkpt>
      <trkpt lat="42.93904" lon="1.15451">
        <ele>826</ele>
        <time>2025-11-03T20:58:42Z</time>
      </trkpt>
      <trkpt lat="42.93878" lon="1.1544">
        <ele>828</ele>
        <time>2025-11-03T20:58:56Z</time>
      </trkpt>
      <trkpt lat="42.93834" lon="1.15414">
        <ele>832</ele>
        <time>2025-11-03T20:59:20Z</time>
      </trkpt>
      <trkpt lat="42.93799" lon="1.15389">
        <ele>841</ele>
        <time>2025-11-03T20:59:39Z</time>
      </trkpt>
      <trkpt lat="42.93783" lon="1.15331">
        <ele>843</ele>
        <time>2025-11-03T21:00:02Z</time>
      </trkpt>
      <trkpt lat="42.93758" lon="1.15264">
        <ele>845</ele>
        <time>2025-11-03T21:00:30Z</time>
      </trkpt>
      <trkpt lat="42.93732" lon="1.15193">
        <ele>848</ele>
        <time>2025-11-03T21:00:59Z</time>
      </trkpt>
      <trkpt lat="42.9373" lon="1.15163">
        <ele>848</ele>
        <time>2025-11-03T21:01:10Z</time>
      </trkpt>
      <trkpt lat="42.93735" lon="1.15127">
        <ele>851</ele>
        <time>2025-11-03T21:01:23Z</time>
      </trkpt>
      <trkpt lat="42.93763" lon="1.15073">
        <ele>855</ele>
        <time>2025-11-03T21:01:47Z</time>
      </trkpt>
      <trkpt lat="42.93765" lon="1.15009">
        <ele>864</ele>
        <time>2025-11-03T21:02:11Z</time>
      </trkpt>
      <trkpt lat="42.93798" lon="1.1494">
        <ele>870</ele>
        <time>2025-11-03T21:02:41Z</time>
      </trkpt>
      <trkpt lat="42.93829" lon="1.14854">
        <ele>873</ele>
        <time>2025-11-03T21:03:16Z</time>
      </trkpt>
      <trkpt lat="42.9386" lon="1.14792">
        <ele>878</ele>
        <time>2025-11-03T21:03:44Z</time>
      </trkpt>
      <trkpt lat="42.93835" lon="1.14781">
        <ele>881</ele>
        <time>2025-11-03T21:03:57Z</time>
      </trkpt>
      <trkpt lat="42.93797" lon="1.1479">
        <ele>889</ele>
        <time>2025-11-03T21:04:16Z</time>
      </trkpt>
      <trkpt lat="42.93799" lon="1.14745">
        <ele>896</ele>
        <time>2025-11-03T21:04:33Z</time>
      </trkpt>
      <trkpt lat="42.93818" lon="1.14717">
        <ele>894</ele>
        <time>2025-11-03T21:04:47Z</time>
      </trkpt>
      <trkpt lat="42.9381" lon="1.1467">
        <ele>904</ele>
        <time>2025-11-03T21:05:04Z</time>
      </trkpt>
      <trkpt lat="42.93788" lon="1.147">
        <ele>907</ele>
        <time>2025-11-03T21:05:20Z</time>
      </trkpt>
      <trkpt lat="42.93711" lon="1.14711">
        <ele>926</ele>
        <time>2025-11-03T21:05:59Z</time>
      </trkpt>
      <trkpt lat="42.9365" lon="1.14779">
        <ele>929</ele>
        <time>2025-11-03T21:06:38Z</time>
      </trkpt>
      <trkpt lat="42.93598" lon="1.14781">
        <ele>945</ele>
        <time>2025-11-03T21:07:04Z</time>
      </trkpt>
      <trkpt lat="42.9353" lon="1.14816">
        <ele>961</ele>
        <time>2025-11-03T21:07:40Z</time>
      </trkpt>
      <trkpt lat="42.93508" lon="1.14869">
        <ele>953</ele>
        <time>2025-11-03T21:08:03Z</time>
      </trkpt>
      <trkpt lat="42.93471" lon="1.14884">
        <ele>962</ele>
        <time>2025-11-03T21:08:22Z</time>
      </trkpt>
      <trkpt lat="42.93428" lon="1.14906">
        <ele>972</ele>
        <time>2025-11-03T21:08:45Z</time>
      </trkpt>
      <trkpt lat="42.93403" lon="1.14921">
        <ele>979</ele>
        <time>2025-11-03T21:08:59Z</time>
      </trkpt>
      <trkpt lat="42.93384" lon="1.14947">
        <ele>984</ele>
        <time>2025-11-03T21:09:12Z</time>
      </trkpt>
      <trkpt lat="42.93367" lon="1.14983">
        <ele>986</ele>
        <time>2025-11-03T21:09:28Z</time>
      </trkpt>
      <trkpt lat="42.93348" lon="1.15028">
        <ele>985</ele>
        <time>2025-11-03T21:09:47Z</time>
      </trkpt>
      <trkpt lat="42.93323" lon="1.15067">
        <ele>988</ele>
        <time>2025-11-03T21:10:06Z</time>
      </trkpt>
      <trkpt lat="42.93295" lon="1.1509">
        <ele>997</ele>
        <time>2025-11-03T21:10:22Z</time>
      </trkpt>
      <trkpt lat="42.93315" lon="1.15002">
        <ele>1007</ele>
        <time>2025-11-03T21:10:56Z</time>
      </trkpt>
      <trkpt lat="42.93333" lon="1.14893">
        <ele>1024</ele>
        <time>2025-11-03T21:11:37Z</time>
      </trkpt>
      <trkpt lat="42.93306" lon="1.14936">
        <ele>1029</ele>
        <time>2025-11-03T21:11:58Z</time>
      </trkpt>
      <trkpt lat="42.93266" lon="1.14998">
        <ele>1035</ele>
        <time>2025-11-03T21:12:28Z</time>
      </trkpt>
      <trkpt lat="42.93251" lon="1.1499">
        <ele>1046</ele>
        <time>2025-11-03T21:12:36Z</time>
      </trkpt>
      <trkpt lat="42.93245" lon="1.14968">
        <ele>1057</ele>
        <time>2025-11-03T21:12:45Z</time>
      </trkpt>
      <trkpt lat="42.93229" lon="1.14957">
        <ele>1074</ele>
        <time>2025-11-03T21:12:54Z</time>
      </trkpt>
      <trkpt lat="42.93224" lon="1.14919">
        <ele>1088</ele>
        <time>2025-11-03T21:13:08Z</time>
      </trkpt>
      <trkpt lat="42.93194" lon="1.14902">
        <ele>1117</ele>
        <time>2025-11-03T21:13:24Z</time>
      </trkpt>
      <trkpt lat="42.93196" lon="1.14874">
        <ele>1126</ele>
        <time>2025-11-03T21:13:34Z</time>
      </trkpt>
      <trkpt lat="42.93185" lon="1.14848">
        <ele>1142</ele>
        <time>2025-11-03T21:13:45Z</time>
      </trkpt>
      <trkpt lat="42.93172" lon="1.14837">
        <ele>1152</ele>
        <time>2025-11-03T21:13:53Z</time>
      </trkpt>
      <trkpt lat="42.93155" lon="1.14826">
        <ele>1159</ele>
        <time>2025-11-03T21:14:02Z</time>
      </trkpt>
      <trkpt lat="42.93138" lon="1.14816">
        <ele>1162</ele>
        <time>2025-11-03T21:14:12Z</time>
      </trkpt>
      <trkpt lat="42.9312" lon="1.14811">
        <ele>1163</ele>
        <time>2025-11-03T21:14:21Z</time>
      </trkpt>
      <trkpt lat="42.93105" lon="1.14809">
        <ele>1163</ele>
        <time>2025-11-03T21:14:28Z</time>
      </trkpt>
      <trkpt lat="42.93087" lon="1.14788">
        <ele>1169</ele>
        <time>2025-11-03T21:14:40Z</time>
      </trkpt>
      <trkpt lat="42.93069" lon="1.14766">
        <ele>1174</ele>
        <time>2025-11-03T21:14:52Z</time>
      </trkpt>
      <trkpt lat="42.93059" lon="1.14751">
        <ele>1177</ele>
        <time>2025-11-03T21:15:00Z</time>
      </trkpt>
      <trkpt lat="42.93054" lon="1.14668">
        <ele>1197</ele>
        <time>2025-11-03T21:15:30Z</time>
      </trkpt>
      <trkpt lat="42.93081" lon="1.14631">
        <ele>1208</ele>
        <time>2025-11-03T21:15:49Z</time>
      </trkpt>
      <trkpt lat="42.93083" lon="1.14558">
        <ele>1218</ele>
        <time>2025-11-03T21:16:16Z</time>
      </trkpt>
      <trkpt lat="42.93127" lon="1.14517">
        <ele>1224</ele>
        <time>2025-11-03T21:16:43Z</time>
      </trkpt>
      <trkpt lat="42.9314" lon="1.14533">
        <ele>1225</ele>
        <time>2025-11-03T21:16:52Z</time>
      </trkpt>
      <trkpt lat="42.93171" lon="1.14512">
        <ele>1229</ele>
        <time>2025-11-03T21:17:09Z</time>
      </trkpt>
      <trkpt lat="42.9319" lon="1.1455">
        <ele>1226</ele>
        <time>2025-11-03T21:17:26Z</time>
      </trkpt>
      <trkpt lat="42.93234" lon="1.14552">
        <ele>1224</ele>
        <time>2025-11-03T21:17:48Z</time>
      </trkpt>
      <trkpt lat="42.93264" lon="1.14535">
        <ele>1223</ele>
        <time>2025-11-03T21:18:04Z</time>
      </trkpt>
      <trkpt lat="42.93276" lon="1.14522">
        <ele>1223</ele>
        <time>2025-11-03T21:18:12Z</time>
      </trkpt>
      <trkpt lat="42.93321" lon="1.14504">
        <ele>1219</ele>
        <time>2025-11-03T21:18:35Z</time>
      </trkpt>
      <trkpt lat="42.93364" lon="1.14468">
        <ele>1207</ele>
        <time>2025-11-03T21:19:00Z</time>
      </trkpt>
      <trkpt lat="42.93381" lon="1.14436">
        <ele>1206</ele>
        <time>2025-11-03T21:19:15Z</time>
      </trkpt>
      <trkpt lat="42.9339" lon="1.14434">
        <ele>1204</ele>
        <time>2025-11-03T21:19:19Z</time>
      </trkpt>
      <trkpt lat="42.93403" lon="1.14391">
        <ele>1206</ele>
        <time>2025-11-03T21:19:37Z</time>
      </trkpt>
      <trkpt lat="42.93442" lon="1.14371">
        <ele>1193</ele>
        <time>2025-11-03T21:19:57Z</time>
      </trkpt>
      <trkpt lat="42.93444" lon="1.14354">
        <ele>1195</ele>
        <time>2025-11-03T21:20:04Z</time>
      </trkpt>
      <trkpt lat="42.9345" lon="1.14318">
        <ele>1198</ele>
        <time>2025-11-03T21:20:17Z</time>
      </trkpt>
      <trkpt lat="42.93467" lon="1.1427">
        <ele>1200</ele>
        <time>2025-11-03T21:20:37Z</time>
      </trkpt>
      <trkpt lat="42.93488" lon="1.14235">
        <ele>1202</ele>
        <time>2025-11-03T21:20:53Z</time>
      </trkpt>
      <trkpt lat="42.93494" lon="1.14161">
        <ele>1213</ele>
        <time>2025-11-03T21:21:21Z</time>
      </trkpt>
      <trkpt lat="42.93505" lon="1.14095">
        <ele>1223</ele>
        <time>2025-11-03T21:21:45Z</time>
      </trkpt>
      <trkpt lat="42.93552" lon="1.14033">
        <ele>1221</ele>
        <time>2025-11-03T21:22:18Z</time>
      </trkpt>
      <trkpt lat="42.93576" lon="1.13972">
        <ele>1226</ele>
        <time>2025-11-03T21:22:43Z</time>
      </trkpt>
      <trkpt lat="42.93617" lon="1.13861">
        <ele>1218</ele>
        <time>2025-11-03T21:23:29Z</time>
      </trkpt>
      <trkpt lat="42.93635" lon="1.13805">
        <ele>1211</ele>
        <time>2025-11-03T21:23:51Z</time>
      </trkpt>
      <trkpt lat="42.93658" lon="1.13747">
        <ele>1204</ele>
        <time>2025-11-03T21:24:16Z</time>
      </trkpt>
      <trkpt lat="42.93728" lon="1.13689">
        <ele>1181</ele>
        <time>2025-11-03T21:24:57Z</time>
      </trkpt>
      <trkpt lat="42.93747" lon="1.13682">
        <ele>1177</ele>
        <time>2025-11-03T21:25:06Z</time>
      </trkpt>
      <trkpt lat="42.93787" lon="1.1361">
        <ele>1157</ele>
        <time>2025-11-03T21:25:40Z</time>
      </trkpt>
      <trkpt lat="42.93837" lon="1.13509">
        <ele>1150</ele>
        <time>2025-11-03T21:26:24Z</time>
      </trkpt>
      <trkpt lat="42.93865" lon="1.13467">
        <ele>1135</ele>
        <time>2025-11-03T21:26:45Z</time>
      </trkpt>
      <trkpt lat="42.93886" lon="1.13387">
        <ele>1134</ele>
        <time>2025-11-03T21:27:16Z</time>
      </trkpt>
      <trkpt lat="42.93868" lon="1.13299">
        <ele>1142</ele>
        <time>2025-11-03T21:27:50Z</time>
      </trkpt>
      <trkpt lat="42.93845" lon="1.13236">
        <ele>1144</ele>
        <time>2025-11-03T21:28:15Z</time>
      </trkpt>
      <trkpt lat="42.93834" lon="1.13159">
        <ele>1137</ele>
        <time>2025-11-03T21:28:44Z</time>
      </trkpt>
      <trkpt lat="42.93823" lon="1.13058">
        <ele>1136</ele>
        <time>2025-11-03T21:29:22Z</time>
      </trkpt>
      <trkpt lat="42.93831" lon="1.12994">
        <ele>1132</ele>
        <time>2025-11-03T21:29:45Z</time>
      </trkpt>
      <trkpt lat="42.93842" lon="1.1294">
        <ele>1129</ele>
        <time>2025-11-03T21:30:06Z</time>
      </trkpt>
      <trkpt lat="42.9384" lon="1.12915">
        <ele>1127</ele>
        <time>2025-11-03T21:30:15Z</time>
      </trkpt>
      <trkpt lat="42.93845" lon="1.12872">
        <ele>1123</ele>
        <time>2025-11-03T21:30:31Z</time>
      </trkpt>
      <trkpt lat="42.93841" lon="1.12831">
        <ele>1118</ele>
        <time>2025-11-03T21:30:46Z</time>
      </trkpt>
      <trkpt lat="42.93837" lon="1.12807">
        <ele>1114</ele>
        <time>2025-11-03T21:30:55Z</time>
      </trkpt>
      <trkpt lat="42.93849" lon="1.12739">
        <ele>1105</ele>
        <time>2025-11-03T21:31:21Z</time>
      </trkpt>
      <trkpt lat="42.93863" lon="1.12655">
        <ele>1093</ele>
        <time>2025-11-03T21:31:52Z</time>
      </trkpt>
      <trkpt lat="42.93917" lon="1.12593">
        <ele>1087</ele>
        <time>2025-11-03T21:32:28Z</time>
      </trkpt>
      <trkpt lat="42.93941" lon="1.12592">
        <ele>1087</ele>
        <time>2025-11-03T21:32:40Z</time>
      </trkpt>
      <trkpt lat="42.9401" lon="1.12564">
        <ele>1081</ele>
        <time>2025-11-03T21:33:16Z</time>
      </trkpt>
      <trkpt lat="42.94048" lon="1.12533">
        <ele>1076</ele>
        <time>2025-11-03T21:33:38Z</time>
      </trkpt>
      <trkpt lat="42.94015" lon="1.12317">
        <ele>1052</ele>
        <time>2025-11-03T21:34:59Z</time>
      </trkpt>
      <trkpt lat="42.9401" lon="1.12238">
        <ele>1036</ele>
        <time>2025-11-03T21:35:28Z</time>
      </trkpt>
      <trkpt lat="42.94085" lon="1.1214">
        <ele>1021</ele>
        <time>2025-11-03T21:36:20Z</time>
      </trkpt>
      <trkpt lat="42.94138" lon="1.11902">
        <ele>971</ele>
        <time>2025-11-03T21:37:51Z</time>
      </trkpt>
      <trkpt lat="42.94151" lon="1.1187">
        <ele>966</ele>
        <time>2025-11-03T21:38:04Z</time>
      </trkpt>
      <trkpt lat="42.94162" lon="1.11951">
        <ele>982</ele>
        <time>2025-11-03T21:38:34Z</time>
      </trkpt>
      <trkpt lat="42.94188" lon="1.12015">
        <ele>984</ele>
        <time>2025-11-03T21:39:01Z</time>
      </trkpt>
      <trkpt lat="42.94204" lon="1.12065">
        <ele>985</ele>
        <time>2025-11-03T21:39:21Z</time>
      </trkpt>
      <trkpt lat="42.94228" lon="1.12098">
        <ele>979</ele>
        <time>2025-11-03T21:39:38Z</time>
      </trkpt>
      <trkpt lat="42.94241" lon="1.12131">
        <ele>977</ele>
        <time>2025-11-03T21:39:52Z</time>
      </trkpt>
      <trkpt lat="42.94255" lon="1.12157">
        <ele>974</ele>
        <time>2025-11-03T21:40:04Z</time>
      </trkpt>
      <trkpt lat="42.9429" lon="1.12171">
        <ele>960</ele>
        <time>2025-11-03T21:40:22Z</time>
      </trkpt>
      <trkpt lat="42.9432" lon="1.12247">
        <ele>955</ele>
        <time>2025-11-03T21:40:54Z</time>
      </trkpt>
      <trkpt lat="42.94319" lon="1.12273">
        <ele>955</ele>
        <time>2025-11-03T21:41:03Z</time>
      </trkpt>
      <trkpt lat="42.94317" lon="1.12299">
        <ele>956</ele>
        <time>2025-11-03T21:41:13Z</time>
      </trkpt>
      <trkpt lat="42.94324" lon="1.12348">
        <ele>950</ele>
        <time>2025-11-03T21:41:31Z</time>
      </trkpt>
      <trkpt lat="42.94322" lon="1.12394">
        <ele>951</ele>
        <time>2025-11-03T21:41:48Z</time>
      </trkpt>
      <trkpt lat="42.94326" lon="1.12434">
        <ele>948</ele>
        <time>2025-11-03T21:42:03Z</time>
      </trkpt>
      <trkpt lat="42.94337" lon="1.12429">
        <ele>941</ele>
        <time>2025-11-03T21:42:09Z</time>
      </trkpt>
      <trkpt lat="42.9435" lon="1.12301">
        <ele>937</ele>
        <time>2025-11-03T21:42:56Z</time>
      </trkpt>
      <trkpt lat="42.94368" lon="1.12265">
        <ele>931</ele>
        <time>2025-11-03T21:43:12Z</time>
      </trkpt>
      <trkpt lat="42.94397" lon="1.12203">
        <ele>918</ele>
        <time>2025-11-03T21:43:39Z</time>
      </trkpt>
      <trkpt lat="42.94386" lon="1.12128">
        <ele>918</ele>
        <time>2025-11-03T21:44:07Z</time>
      </trkpt>
      <trkpt lat="42.94353" lon="1.12067">
        <ele>917</ele>
        <time>2025-11-03T21:44:35Z</time>
      </trkpt>
      <trkpt lat="42.94346" lon="1.12032">
        <ele>911</ele>
        <time>2025-11-03T21:44:48Z</time>
      </trkpt>
      <trkpt lat="42.94327" lon="1.1201">
        <ele>912</ele>
        <time>2025-11-03T21:45:00Z</time>
      </trkpt>
      <trkpt lat="42.94335" lon="1.12">
        <ele>907</ele>
        <time>2025-11-03T21:45:06Z</time>
      </trkpt>
      <trkpt lat="42.94373" lon="1.1202">
        <ele>903</ele>
        <time>2025-11-03T21:45:26Z</time>
      </trkpt>
      <trkpt lat="42.94415" lon="1.12025">
        <ele>896</ele>
        <time>2025-11-03T21:45:47Z</time>
      </trkpt>
      <trkpt lat="42.94445" lon="1.12059">
        <ele>893</ele>
        <time>2025-11-03T21:46:07Z</time>
      </trkpt>
      <trkpt lat="42.94461" lon="1.12096">
        <ele>891</ele>
        <time>2025-11-03T21:46:23Z</time>
      </trkpt>
      <trkpt lat="42.94472" lon="1.12127">
        <ele>888</ele>
        <time>2025-11-03T21:46:35Z</time>
      </trkpt>
      <trkpt lat="42.9447" lon="1.12159">
        <ele>889</ele>
        <time>2025-11-03T21:46:47Z</time>
      </trkpt>
      <trkpt lat="42.94478" lon="1.12191">
        <ele>884</ele>
        <time>2025-11-03T21:46:59Z</time>
      </trkpt>
      <trkpt lat="42.94475" lon="1.12225">
        <ele>883</ele>
        <time>2025-11-03T21:47:12Z</time>
      </trkpt>
      <trkpt lat="42.94461" lon="1.12253">
        <ele>887</ele>
        <time>2025-11-03T21:47:24Z</time>
      </trkpt>
      <trkpt lat="42.9444" lon="1.1229">
        <ele>894</ele>
        <time>2025-11-03T21:47:41Z</time>
      </trkpt>
      <trkpt lat="42.94431" lon="1.12337">
        <ele>894</ele>
        <time>2025-11-03T21:47:59Z</time>
      </trkpt>
      <trkpt lat="42.94433" lon="1.12411">
        <ele>893</ele>
        <time>2025-11-03T21:48:26Z</time>
      </trkpt>
      <trkpt lat="42.94441" lon="1.12509">
        <ele>884</ele>
        <time>2025-11-03T21:49:02Z</time>
      </trkpt>
      <trkpt lat="42.94437" lon="1.1255">
        <ele>882</ele>
        <time>2025-11-03T21:49:18Z</time>
      </trkpt>
      <trkpt lat="42.94439" lon="1.12578">
        <ele>878</ele>
        <time>2025-11-03T21:49:28Z</time>
      </trkpt>
      <trkpt lat="42.94423" lon="1.12616">
        <ele>881</ele>
        <time>2025-11-03T21:49:44Z</time>
      </trkpt>
      <trkpt lat="42.94417" lon="1.12691">
        <ele>876</ele>
        <time>2025-11-03T21:50:12Z</time>
      </trkpt>
      <trkpt lat="42.94411" lon="1.12762">
        <ele>872</ele>
        <time>2025-11-03T21:50:38Z</time>
      </trkpt>
      <trkpt lat="42.9441" lon="1.12825">
        <ele>867</ele>
        <time>2025-11-03T21:51:01Z</time>
      </trkpt>
      <trkpt lat="42.94411" lon="1.12891">
        <ele>863</ele>
        <time>2025-11-03T21:51:25Z</time>
      </trkpt>
      <trkpt lat="42.944" lon="1.12935">
        <ele>866</ele>
        <time>2025-11-03T21:51:42Z</time>
      </trkpt>
      <trkpt lat="42.94406" lon="1.12967">
        <ele>863</ele>
        <time>2025-11-03T21:51:54Z</time>
      </trkpt>
      <trkpt lat="42.94414" lon="1.13004">
        <ele>858</ele>
        <time>2025-11-03T21:52:08Z</time>
      </trkpt>
      <trkpt lat="42.94418" lon="1.13036">
        <ele>857</ele>
        <time>2025-11-03T21:52:20Z</time>
      </trkpt>
      <trkpt lat="42.94425" lon="1.13056">
        <ele>855</ele>
        <time>2025-11-03T21:52:28Z</time>
      </trkpt>
      <trkpt lat="42.94437" lon="1.13074">
        <ele>850</ele>
        <time>2025-11-03T21:52:37Z</time>
      </trkpt>
      <trkpt lat="42.94448" lon="1.1309">
        <ele>847</ele>
        <time>2025-11-03T21:52:45Z</time>
      </trkpt>
      <trkpt lat="42.94461" lon="1.13106">
        <ele>843</ele>
        <time>2025-11-03T21:52:54Z</time>
      </trkpt>
      <trkpt lat="42.94468" lon="1.1312">
        <ele>841</ele>
        <time>2025-11-03T21:53:00Z</time>
      </trkpt>
      <trkpt lat="42.94473" lon="1.13139">
        <ele>839</ele>
        <time>2025-11-03T21:53:08Z</time>
      </trkpt>
      <trkpt lat="42.9447" lon="1.13168">
        <ele>841</ele>
        <time>2025-11-03T21:53:18Z</time>
      </trkpt>
      <trkpt lat="42.94469" lon="1.13195">
        <ele>841</ele>
        <time>2025-11-03T21:53:28Z</time>
      </trkpt>
      <trkpt lat="42.9447" lon="1.13216">
        <ele>839</ele>
        <time>2025-11-03T21:53:36Z</time>
      </trkpt>
      <trkpt lat="42.94469" lon="1.13228">
        <ele>839</ele>
        <time>2025-11-03T21:53:40Z</time>
      </trkpt>
      <trkpt lat="42.94465" lon="1.13244">
        <ele>840</ele>
        <time>2025-11-03T21:53:47Z</time>
      </trkpt>
      <trkpt lat="42.94458" lon="1.13264">
        <ele>841</ele>
        <time>2025-11-03T21:53:55Z</time>
      </trkpt>
      <trkpt lat="42.94455" lon="1.13287">
        <ele>841</ele>
        <time>2025-11-03T21:54:03Z</time>
      </trkpt>
      <trkpt lat="42.94452" lon="1.13305">
        <ele>842</ele>
        <time>2025-11-03T21:54:10Z</time>
      </trkpt>
      <trkpt lat="42.94457" lon="1.13324">
        <ele>839</ele>
        <time>2025-11-03T21:54:17Z</time>
      </trkpt>
      <trkpt lat="42.94462" lon="1.13338">
        <ele>836</ele>
        <time>2025-11-03T21:54:23Z</time>
      </trkpt>
      <trkpt lat="42.94468" lon="1.13353">
        <ele>833</ele>
        <time>2025-11-03T21:54:29Z</time>
      </trkpt>
      <trkpt lat="42.94473" lon="1.1337">
        <ele>831</ele>
        <time>2025-11-03T21:54:36Z</time>
      </trkpt>
      <trkpt lat="42.94477" lon="1.13385">
        <ele>829</ele>
        <time>2025-11-03T21:54:42Z</time>
      </trkpt>
      <trkpt lat="42.94478" lon="1.13404">
        <ele>827</ele>
        <time>2025-11-03T21:54:49Z</time>
      </trkpt>
      <trkpt lat="42.94478" lon="1.13418">
        <ele>827</ele>
        <time>2025-11-03T21:54:54Z</time>
      </trkpt>
      <trkpt lat="42.94474" lon="1.13436">
        <ele>826</ele>
        <time>2025-11-03T21:55:01Z</time>
      </trkpt>
      <trkpt lat="42.94468" lon="1.13457">
        <ele>826</ele>
        <time>2025-11-03T21:55:09Z</time>
      </trkpt>
      <trkpt lat="42.94458" lon="1.1348">
        <ele>827</ele>
        <time>2025-11-03T21:55:19Z</time>
      </trkpt>
      <trkpt lat="42.94453" lon="1.13499">
        <ele>827</ele>
        <time>2025-11-03T21:55:26Z</time>
      </trkpt>
      <trkpt lat="42.94449" lon="1.13521">
        <ele>826</ele>
        <time>2025-11-03T21:55:35Z</time>
      </trkpt>
      <trkpt lat="42.94442" lon="1.13539">
        <ele>825</ele>
        <time>2025-11-03T21:55:42Z</time>
      </trkpt>
      <trkpt lat="42.94432" lon="1.13558">
        <ele>825</ele>
        <time>2025-11-03T21:55:51Z</time>
      </trkpt>
      <trkpt lat="42.94435" lon="1.13579">
        <ele>822</ele>
        <time>2025-11-03T21:55:59Z</time>
      </trkpt>
      <trkpt lat="42.94431" lon="1.13602">
        <ele>822</ele>
        <time>2025-11-03T21:56:07Z</time>
      </trkpt>
      <trkpt lat="42.94434" lon="1.13629">
        <ele>821</ele>
        <time>2025-11-03T21:56:17Z</time>
      </trkpt>
      <trkpt lat="42.94439" lon="1.13643">
        <ele>821</ele>
        <time>2025-11-03T21:56:23Z</time>
      </trkpt>
      <trkpt lat="42.94471" lon="1.13638">
        <ele>817</ele>
        <time>2025-11-03T21:56:39Z</time>
      </trkpt>
      <trkpt lat="42.94488" lon="1.13646">
        <ele>816</ele>
        <time>2025-11-03T21:56:48Z</time>
      </trkpt>
      <trkpt lat="42.94513" lon="1.13683">
        <ele>818</ele>
        <time>2025-11-03T21:57:07Z</time>
      </trkpt>
      <trkpt lat="42.94543" lon="1.13693">
        <ele>817</ele>
        <time>2025-11-03T21:57:22Z</time>
      </trkpt>
      <trkpt lat="42.94566" lon="1.13698">
        <ele>816</ele>
        <time>2025-11-03T21:57:34Z</time>
      </trkpt>
      <trkpt lat="42.94582" lon="1.13718">
        <ele>817</ele>
        <time>2025-11-03T21:57:45Z</time>
      </trkpt>
      <trkpt lat="42.94564" lon="1.13727">
        <ele>819</ele>
        <time>2025-11-03T21:57:54Z</time>
      </trkpt>
      <trkpt lat="42.94533" lon="1.13736">
        <ele>822</ele>
        <time>2025-11-03T21:58:10Z</time>
      </trkpt>
      <trkpt lat="42.94508" lon="1.13747">
        <ele>825</ele>
        <time>2025-11-03T21:58:23Z</time>
      </trkpt>
      <trkpt lat="42.94503" lon="1.13759">
        <ele>826</ele>
        <time>2025-11-03T21:58:28Z</time>
      </trkpt>
      <trkpt lat="42.94588" lon="1.13766">
        <ele>820</ele>
        <time>2025-11-03T21:59:11Z</time>
      </trkpt>
      <trkpt lat="42.94601" lon="1.1377">
        <ele>821</ele>
        <time>2025-11-03T21:59:17Z</time>
      </trkpt>
      <trkpt lat="42.94611" lon="1.13766">
        <ele>821</ele>
        <time>2025-11-03T21:59:23Z</time>
      </trkpt>
      <trkpt lat="42.94624" lon="1.13764">
        <ele>821</ele>
        <time>2025-11-03T21:59:29Z</time>
      </trkpt>
      <trkpt lat="42.94635" lon="1.13753">
        <ele>822</ele>
        <time>2025-11-03T21:59:36Z</time>
      </trkpt>
      <trkpt lat="42.9465" lon="1.13738">
        <ele>822</ele>
        <time>2025-11-03T21:59:45Z</time>
      </trkpt>
      <trkpt lat="42.94659" lon="1.13724">
        <ele>822</ele>
        <time>2025-11-03T21:59:52Z</time>
      </trkpt>
      <trkpt lat="42.94681" lon="1.13721">
        <ele>824</ele>
        <time>2025-11-03T22:00:03Z</time>
      </trkpt>
      <trkpt lat="42.94701" lon="1.13734">
        <ele>826</ele>
        <time>2025-11-03T22:00:14Z</time>
      </trkpt>
      <trkpt lat="42.94719" lon="1.13744">
        <ele>828</ele>
        <time>2025-11-03T22:00:24Z</time>
      </trkpt>
      <trkpt lat="42.94734" lon="1.13747">
        <ele>829</ele>
        <time>2025-11-03T22:00:32Z</time>
      </trkpt>
      <trkpt lat="42.94746" lon="1.13749">
        <ele>831</ele>
        <time>2025-11-03T22:00:38Z</time>
      </trkpt>
      <trkpt lat="42.94758" lon="1.13751">
        <ele>832</ele>
        <time>2025-11-03T22:00:44Z</time>
      </trkpt>
      <trkpt lat="42.9478" lon="1.13754">
        <ele>833</ele>
        <time>2025-11-03T22:00:55Z</time>
      </trkpt>
      <trkpt lat="42.94796" lon="1.13751">
        <ele>835</ele>
        <time>2025-11-03T22:01:03Z</time>
      </trkpt>
      <trkpt lat="42.9481" lon="1.1375">
        <ele>836</ele>
        <time>2025-11-03T22:01:10Z</time>
      </trkpt>
      <trkpt lat="42.94823" lon="1.13747">
        <ele>837</ele>
        <time>2025-11-03T22:01:16Z</time>
      </trkpt>
      <trkpt lat="42.94836" lon="1.1374">
        <ele>837</ele>
        <time>2025-11-03T22:01:23Z</time>
      </trkpt>
      <trkpt lat="42.94847" lon="1.13736">
        <ele>837</ele>
        <time>2025-11-03T22:01:29Z</time>
      </trkpt>
      <trkpt lat="42.94863" lon="1.13714">
        <ele>836</ele>
        <time>2025-11-03T22:01:41Z</time>
      </trkpt>
      <trkpt lat="42.94884" lon="1.13706">
        <ele>836</ele>
        <time>2025-11-03T22:01:51Z</time>
      </trkpt>
      <trkpt lat="42.94904" lon="1.13706">
        <ele>836</ele>
        <time>2025-11-03T22:02:01Z</time>
      </trkpt>
      <trkpt lat="42.94926" lon="1.1371">
        <ele>835</ele>
        <time>2025-11-03T22:02:13Z</time>
      </trkpt>
      <trkpt lat="42.94939" lon="1.13722">
        <ele>835</ele>
        <time>2025-11-03T22:02:20Z</time>
      </trkpt>
      <trkpt lat="42.94951" lon="1.1374">
        <ele>836</ele>
        <time>2025-11-03T22:02:29Z</time>
      </trkpt>
      <trkpt lat="42.9498" lon="1.1375">
        <ele>834</ele>
        <time>2025-11-03T22:02:44Z</time>
      </trkpt>
      <trkpt lat="42.95" lon="1.13736">
        <ele>830</ele>
        <time>2025-11-03T22:02:56Z</time>
      </trkpt>
      <trkpt lat="42.95015" lon="1.13702">
        <ele>828</ele>
        <time>2025-11-03T22:03:10Z</time>
      </trkpt>
      <trkpt lat="42.95023" lon="1.13682">
        <ele>826</ele>
        <time>2025-11-03T22:03:18Z</time>
      </trkpt>
      <trkpt lat="42.95038" lon="1.1366">
        <ele>824</ele>
        <time>2025-11-03T22:03:29Z</time>
      </trkpt>
      <trkpt lat="42.95052" lon="1.13628">
        <ele>821</ele>
        <time>2025-11-03T22:03:43Z</time>
      </trkpt>
      <trkpt lat="42.95055" lon="1.13612">
        <ele>818</ele>
        <time>2025-11-03T22:03:49Z</time>
      </trkpt>
      <trkpt lat="42.95058" lon="1.1359">
        <ele>815</ele>
        <time>2025-11-03T22:03:57Z</time>
      </trkpt>
      <trkpt lat="42.95075" lon="1.13563">
        <ele>813</ele>
        <time>2025-11-03T22:04:10Z</time>
      </trkpt>
      <trkpt lat="42.95134" lon="1.13543">
        <ele>810</ele>
        <time>2025-11-03T22:04:41Z</time>
      </trkpt>
      <trkpt lat="42.95181" lon="1.1356">
        <ele>809</ele>
        <time>2025-11-03T22:05:05Z</time>
      </trkpt>
      <trkpt lat="42.95233" lon="1.13577">
        <ele>804</ele>
        <time>2025-11-03T22:05:32Z</time>
      </trkpt>
      <trkpt lat="42.95249" lon="1.13573">
        <ele>803</ele>
        <time>2025-11-03T22:05:40Z</time>
      </trkpt>
      <trkpt lat="42.95268" lon="1.13562">
        <ele>803</ele>
        <time>2025-11-03T22:05:50Z</time>
      </trkpt>
      <trkpt lat="42.95291" lon="1.1358">
        <ele>798</ele>
        <time>2025-11-03T22:06:04Z</time>
      </trkpt>
      <trkpt lat="42.95374" lon="1.13688">
        <ele>785</ele>
        <time>2025-11-03T22:07:01Z</time>
      </trkpt>
      <trkpt lat="42.95401" lon="1.13731">
        <ele>780</ele>
        <time>2025-11-03T22:07:22Z</time>
      </trkpt>
      <trkpt lat="42.95427" lon="1.1375">
        <ele>774</ele>
        <time>2025-11-03T22:07:36Z</time>
      </trkpt>
      <trkpt lat="42.95463" lon="1.1375">
        <ele>772</ele>
        <time>2025-11-03T22:07:54Z</time>
      </trkpt>
      <trkpt lat="42.95519" lon="1.13746">
        <ele>768</ele>
        <time>2025-11-03T22:08:23Z</time>
      </trkpt>
      <trkpt lat="42.95566" lon="1.13777">
        <ele>757</ele>
        <time>2025-11-03T22:08:49Z</time>
      </trkpt>
      <trkpt lat="42.95593" lon="1.13812">
        <ele>749</ele>
        <time>2025-11-03T22:09:07Z</time>
      </trkpt>
      <trkpt lat="42.95574" lon="1.13831">
        <ele>746</ele>
        <time>2025-11-03T22:09:19Z</time>
      </trkpt>
      <trkpt lat="42.95537" lon="1.13862">
        <ele>747</ele>
        <time>2025-11-03T22:09:41Z</time>
      </trkpt>
      <trkpt lat="42.95473" lon="1.13929">
        <ele>748</ele>
        <time>2025-11-03T22:10:21Z</time>
      </trkpt>
      <trkpt lat="42.95452" lon="1.13941">
        <ele>749</ele>
        <time>2025-11-03T22:10:33Z</time>
      </trkpt>
      <trkpt lat="42.95424" lon="1.13976">
        <ele>748</ele>
        <time>2025-11-03T22:10:52Z</time>
      </trkpt>
      <trkpt lat="42.95404" lon="1.14001">
        <ele>748</ele>
        <time>2025-11-03T22:11:05Z</time>
      </trkpt>
      <trkpt lat="42.9538" lon="1.14041">
        <ele>751</ele>
        <time>2025-11-03T22:11:24Z</time>
      </trkpt>
      <trkpt lat="42.95381" lon="1.14075">
        <ele>750</ele>
        <time>2025-11-03T22:11:36Z</time>
      </trkpt>
      <trkpt lat="42.95397" lon="1.14079">
        <ele>748</ele>
        <time>2025-11-03T22:11:45Z</time>
      </trkpt>
      <trkpt lat="42.95408" lon="1.14093">
        <ele>746</ele>
        <time>2025-11-03T22:11:52Z</time>
      </trkpt>
      <trkpt lat="42.95396" lon="1.14109">
        <ele>747</ele>
        <time>2025-11-03T22:12:01Z</time>
      </trkpt>
      <trkpt lat="42.95395" lon="1.14119">
        <ele>747</ele>
        <time>2025-11-03T22:12:04Z</time>
      </trkpt>
      <trkpt lat="42.954" lon="1.14142">
        <ele>746</ele>
        <time>2025-11-03T22:12:13Z</time>
      </trkpt>
      <trkpt lat="42.95393" lon="1.14182">
        <ele>746</ele>
        <time>2025-11-03T22:12:28Z</time>
      </trkpt>
      <trkpt lat="42.9538" lon="1.14201">
        <ele>747</ele>
        <time>2025-11-03T22:12:38Z</time>
      </trkpt>
      <trkpt lat="42.95365" lon="1.14236">
        <ele>745</ele>
        <time>2025-11-03T22:12:52Z</time>
      </trkpt>
      <trkpt lat="42.95354" lon="1.14268">
        <ele>742</ele>
        <time>2025-11-03T22:13:05Z</time>
      </trkpt>
      <trkpt lat="42.95346" lon="1.14282">
        <ele>740</ele>
        <time>2025-11-03T22:13:12Z</time>
      </trkpt>
      <trkpt lat="42.95331" lon="1.14303">
        <ele>736</ele>
        <time>2025-11-03T22:13:23Z</time>
      </trkpt>
      <trkpt lat="42.95349" lon="1.14303">
        <ele>736</ele>
        <time>2025-11-03T22:13:32Z</time>
      </trkpt>
      <trkpt lat="42.95361" lon="1.14308">
        <ele>736</ele>
        <time>2025-11-03T22:13:38Z</time>
      </trkpt>
      <trkpt lat="42.95368" lon="1.14324">
        <ele>735</ele>
        <time>2025-11-03T22:13:45Z</time>
      </trkpt>
      <trkpt lat="42.95371" lon="1.14354">
        <ele>732</ele>
        <time>2025-11-03T22:13:56Z</time>
      </trkpt>
      <trkpt lat="42.9537" lon="1.14382">
        <ele>728</ele>
        <time>2025-11-03T22:14:06Z</time>
      </trkpt>
      <trkpt lat="42.95373" lon="1.14407">
        <ele>727</ele>
        <time>2025-11-03T22:14:15Z</time>
      </trkpt>
      <trkpt lat="42.95381" lon="1.14469">
        <ele>722</ele>
        <time>2025-11-03T22:14:38Z</time>
      </trkpt>
      <trkpt lat="42.95391" lon="1.14527">
        <ele>719</ele>
        <time>2025-11-03T22:15:00Z</time>
      </trkpt>
      <trkpt lat="42.95405" lon="1.14624">
        <ele>715</ele>
        <time>2025-11-03T22:15:37Z</time>
      </trkpt>
      <trkpt lat="42.95412" lon="1.14681">
        <ele>714</ele>
        <time>2025-11-03T22:15:58Z</time>
      </trkpt>
      <trkpt lat="42.95422" lon="1.14726">
        <ele>714</ele>
        <time>2025-11-03T22:16:15Z</time>
      </trkpt>
      <trkpt lat="42.95423" lon="1.14758">
        <ele>712</ele>
        <time>2025-11-03T22:16:27Z</time>
      </trkpt>
      <trkpt lat="42.95424" lon="1.14826">
        <ele>709</ele>
        <time>2025-11-03T22:16:52Z</time>
      </trkpt>
      <trkpt lat="42.95434" lon="1.14885">
        <ele>708</ele>
        <time>2025-11-03T22:17:14Z</time>
      </trkpt>
      <trkpt lat="42.95442" lon="1.14944">
        <ele>705</ele>
        <time>2025-11-03T22:17:36Z</time>
      </trkpt>
      <trkpt lat="42.9545" lon="1.14972">
        <ele>704</ele>
        <time>2025-11-03T22:17:47Z</time>
      </trkpt>
      <trkpt lat="42.95458" lon="1.14992">
        <ele>703</ele>
        <time>2025-11-03T22:17:55Z</time>
      </trkpt>
      <trkpt lat="42.95486" lon="1.15031">
        <ele>703</ele>
        <time>2025-11-03T22:18:15Z</time>
      </trkpt>
      <trkpt lat="42.95526" lon="1.15067">
        <ele>697</ele>
        <time>2025-11-03T22:18:39Z</time>
      </trkpt>
      <trkpt lat="42.95568" lon="1.15118">
        <ele>689</ele>
        <time>2025-11-03T22:19:07Z</time>
      </trkpt>
      <trkpt lat="42.95601" lon="1.1515">
        <ele>685</ele>
        <time>2025-11-03T22:19:27Z</time>
      </trkpt>
      <trkpt lat="42.9562" lon="1.1515">
        <ele>684</ele>
        <time>2025-11-03T22:19:37Z</time>
      </trkpt>
      <trkpt lat="42.95659" lon="1.15141">
        <ele>682</ele>
        <time>2025-11-03T22:19:57Z</time>
      </trkpt>
      <trkpt lat="42.95733" lon="1.15132">
        <ele>675</ele>
        <time>2025-11-03T22:20:34Z</time>
      </trkpt>
      <trkpt lat="42.95757" lon="1.15138">
        <ele>673</ele>
        <time>2025-11-03T22:20:46Z</time>
      </trkpt>
      <trkpt lat="42.95784" lon="1.15169">
        <ele>672</ele>
        <time>2025-11-03T22:21:04Z</time>
      </trkpt>
      <trkpt lat="42.95815" lon="1.15205">
        <ele>667</ele>
        <time>2025-11-03T22:21:24Z</time>
      </trkpt>
      <trkpt lat="42.95828" lon="1.15222">
        <ele>667</ele>
        <time>2025-11-03T22:21:33Z</time>
      </trkpt>
      <trkpt lat="42.95839" lon="1.1523">
        <ele>666</ele>
        <time>2025-11-03T22:21:39Z</time>
      </trkpt>
      <trkpt lat="42.95856" lon="1.15235">
        <ele>666</ele>
        <time>2025-11-03T22:21:48Z</time>
      </trkpt>
      <trkpt lat="42.95868" lon="1.15238">
        <ele>665</ele>
        <time>2025-11-03T22:21:54Z</time>
      </trkpt>
      <trkpt lat="42.95881" lon="1.1524">
        <ele>665</ele>
        <time>2025-11-03T22:22:01Z</time>
      </trkpt>
      <trkpt lat="42.95897" lon="1.15235">
        <ele>664</ele>
        <time>2025-11-03T22:22:09Z</time>
      </trkpt>
      <trkpt lat="42.95906" lon="1.15226">
        <ele>662</ele>
        <time>2025-11-03T22:22:15Z</time>
      </trkpt>
      <trkpt lat="42.95917" lon="1.15216">
        <ele>661</ele>
        <time>2025-11-03T22:22:21Z</time>
      </trkpt>
      <trkpt lat="42.95928" lon="1.15205">
        <ele>659</ele>
        <time>2025-11-03T22:22:28Z</time>
      </trkpt>
      <trkpt lat="42.95941" lon="1.15196">
        <ele>658</ele>
        <time>2025-11-03T22:22:35Z</time>
      </trkpt>
      <trkpt lat="42.95951" lon="1.15193">
        <ele>657</ele>
        <time>2025-11-03T22:22:40Z</time>
      </trkpt>
      <trkpt lat="42.95962" lon="1.15194">
        <ele>657</ele>
        <time>2025-11-03T22:22:46Z</time>
      </trkpt>
      <trkpt lat="42.9597" lon="1.15203">
        <ele>657</ele>
        <time>2025-11-03T22:22:51Z</time>
      </trkpt>
      <trkpt lat="42.95974" lon="1.15219">
        <ele>657</ele>
        <time>2025-11-03T22:22:57Z</time>
      </trkpt>
      <trkpt lat="42.95979" lon="1.15235">
        <ele>656</ele>
        <time>2025-11-03T22:23:04Z</time>
      </trkpt>
      <trkpt lat="42.95983" lon="1.15256">
        <ele>656</ele>
        <time>2025-11-03T22:23:12Z</time>
      </trkpt>
      <trkpt lat="42.95989" lon="1.15284">
        <ele>653</ele>
        <time>2025-11-03T22:23:22Z</time>
      </trkpt>
      <trkpt lat="42.9599" lon="1.153">
        <ele>652</ele>
        <time>2025-11-03T22:23:28Z</time>
      </trkpt>
      <trkpt lat="42.95989" lon="1.1531">
        <ele>652</ele>
        <time>2025-11-03T22:23:32Z</time>
      </trkpt>
      <trkpt lat="42.95988" lon="1.15325">
        <ele>651</ele>
        <time>2025-11-03T22:23:37Z</time>
      </trkpt>
      <trkpt lat="42.95991" lon="1.15332">
        <ele>650</ele>
        <time>2025-11-03T22:23:40Z</time>
      </trkpt>
      <trkpt lat="42.96" lon="1.15323">
        <ele>650</ele>
        <time>2025-11-03T22:23:46Z</time>
      </trkpt>
      <trkpt lat="42.9601" lon="1.15314">
        <ele>648</ele>
        <time>2025-11-03T22:23:52Z</time>
      </trkpt>
      <trkpt lat="42.96019" lon="1.15303">
        <ele>647</ele>
        <time>2025-11-03T22:23:58Z</time>
      </trkpt>
      <trkpt lat="42.96029" lon="1.15289">
        <ele>645</ele>
        <time>2025-11-03T22:24:05Z</time>
      </trkpt>
      <trkpt lat="42.96034" lon="1.15279">
        <ele>645</ele>
        <time>2025-11-03T22:24:10Z</time>
      </trkpt>
      <trkpt lat="42.96051" lon="1.15263">
        <ele>642</ele>
        <time>2025-11-03T22:24:20Z</time>
      </trkpt>
      <trkpt lat="42.96057" lon="1.15252">
        <ele>642</ele>
        <time>2025-11-03T22:24:25Z</time>
      </trkpt>
      <trkpt lat="42.96067" lon="1.15241">
        <ele>640</ele>
        <time>2025-11-03T22:24:31Z</time>
      </trkpt>
      <trkpt lat="42.96073" lon="1.15244">
        <ele>638</ele>
        <time>2025-11-03T22:24:35Z</time>
      </trkpt>
      <trkpt lat="42.96076" lon="1.15258">
        <ele>637</ele>
        <time>2025-11-03T22:24:40Z</time>
      </trkpt>
      <trkpt lat="42.96086" lon="1.1528">
        <ele>633</ele>
        <time>2025-11-03T22:24:49Z</time>
      </trkpt>
      <trkpt lat="42.96087" lon="1.15299">
        <ele>632</ele>
        <time>2025-11-03T22:24:56Z</time>
      </trkpt>
      <trkpt lat="42.96091" lon="1.15314">
        <ele>629</ele>
        <time>2025-11-03T22:25:02Z</time>
      </trkpt>
      <trkpt lat="42.96111" lon="1.15324">
        <ele>623</ele>
        <time>2025-11-03T22:25:13Z</time>
      </trkpt>
      <trkpt lat="42.96144" lon="1.15299">
        <ele>617</ele>
        <time>2025-11-03T22:25:32Z</time>
      </trkpt>
      <trkpt lat="42.96158" lon="1.15273">
        <ele>617</ele>
        <time>2025-11-03T22:25:44Z</time>
      </trkpt>
      <trkpt lat="42.96179" lon="1.15263">
        <ele>615</ele>
        <time>2025-11-03T22:25:55Z</time>
      </trkpt>
      <trkpt lat="42.96216" lon="1.15317">
        <ele>604</ele>
        <time>2025-11-03T22:26:22Z</time>
      </trkpt>
      <trkpt lat="42.96208" lon="1.15361">
        <ele>595</ele>
        <time>2025-11-03T22:26:38Z</time>
      </trkpt>
      <trkpt lat="42.96285" lon="1.1535">
        <ele>594</ele>
        <time>2025-11-03T22:27:17Z</time>
      </trkpt>
      <trkpt lat="42.96282" lon="1.1538">
        <ele>581</ele>
        <time>2025-11-03T22:27:28Z</time>
      </trkpt>
      <trkpt lat="42.96313" lon="1.15391">
        <ele>577</ele>
        <time>2025-11-03T22:27:44Z</time>
      </trkpt>
      <trkpt lat="42.9635" lon="1.15417">
        <ele>568</ele>
        <time>2025-11-03T22:28:05Z</time>
      </trkpt>
      <trkpt lat="42.96373" lon="1.15451">
        <ele>556</ele>
        <time>2025-11-03T22:28:22Z</time>
      </trkpt>
      <trkpt lat="42.96405" lon="1.15496">
        <ele>541</ele>
        <time>2025-11-03T22:28:45Z</time>
      </trkpt>
      <trkpt lat="42.96409" lon="1.15545">
        <ele>524</ele>
        <time>2025-11-03T22:29:03Z</time>
      </trkpt>
      <trkpt lat="42.96416" lon="1.15573">
        <ele>514</ele>
        <time>2025-11-03T22:29:14Z</time>
      </trkpt>
      <trkpt lat="42.96422" lon="1.15608">
        <ele>503</ele>
        <time>2025-11-03T22:29:27Z</time>
      </trkpt>
      <trkpt lat="42.96477" lon="1.15653">
        <ele>486</ele>
        <time>2025-11-03T22:29:59Z</time>
      </trkpt>
      <trkpt lat="42.96538" lon="1.1571">
        <ele>462</ele>
        <time>2025-11-03T22:30:36Z</time>
      </trkpt>
      <trkpt lat="42.96544" lon="1.15783">
        <ele>448</ele>
        <time>2025-11-03T22:31:03Z</time>
      </trkpt>
      <trkpt lat="42.96543" lon="1.15841">
        <ele>440</ele>
        <time>2025-11-03T22:31:24Z</time>
      </trkpt>
      <trkpt lat="42.96577" lon="1.15895">
        <ele>430</ele>
        <time>2025-11-03T22:31:50Z</time>
      </trkpt>
      <trkpt lat="42.96599" lon="1.1597">
        <ele>425</ele>
        <time>2025-11-03T22:32:20Z</time>
      </trkpt>
      <trkpt lat="42.96611" lon="1.15984">
        <ele>423</ele>
        <time>2025-11-03T22:32:28Z</time>
      </trkpt>
      <trkpt lat="42.96723" lon="1.15853">
        <ele>413</ele>
        <time>2025-11-03T22:33:42Z</time>
      </trkpt>
      <trkpt lat="42.9675" lon="1.15816">
        <ele>412</ele>
        <time>2025-11-03T22:34:01Z</time>
      </trkpt>
      <trkpt lat="42.96824" lon="1.15762">
        <ele>410</ele>
        <time>2025-11-03T22:34:43Z</time>
      </trkpt>
      <trkpt lat="42.96899" lon="1.15688">
        <ele>411</ele>
        <time>2025-11-03T22:35:29Z</time>
      </trkpt>
      <trkpt lat="42.96963" lon="1.15627">
        <ele>407</ele>
        <time>2025-11-03T22:36:08Z</time>
      </trkpt>
      <trkpt lat="42.96985" lon="1.15606">
        <ele>405</ele>
        <time>2025-11-03T22:36:21Z</time>
      </trkpt>
      <trkpt lat="42.97039" lon="1.15548">
        <ele>405</ele>
        <time>2025-11-03T22:36:56Z</time>
      </trkpt>
      <trkpt lat="42.97035" lon="1.15526">
        <ele>405</ele>
        <time>2025-11-03T22:37:04Z</time>
      </trkpt>
      <trkpt lat="42.97041" lon="1.15506">
        <ele>405</ele>
        <time>2025-11-03T22:37:12Z</time>
      </trkpt>
      <trkpt lat="42.9707" lon="1.15463">
        <ele>406</ele>
        <time>2025-11-03T22:37:33Z</time>
      </trkpt>
      <trkpt lat="42.97083" lon="1.15434">
        <ele>406</ele>
        <time>2025-11-03T22:37:46Z</time>
      </trkpt>
      <trkpt lat="42.97115" lon="1.1541">
        <ele>407</ele>
        <time>2025-11-03T22:38:04Z</time>
      </trkpt>
      <trkpt lat="42.97127" lon="1.15387">
        <ele>410</ele>
        <time>2025-11-03T22:38:14Z</time>
      </trkpt>
      <trkpt lat="42.97147" lon="1.15374">
        <ele>412</ele>
        <time>2025-11-03T22:38:26Z</time>
      </trkpt>
      <trkpt lat="42.97171" lon="1.15373">
        <ele>412</ele>
        <time>2025-11-03T22:38:38Z</time>
      </trkpt>
      <trkpt lat="42.97241" lon="1.15377">
        <ele>408</ele>
        <time>2025-11-03T22:39:13Z</time>
      </trkpt>
      <trkpt lat="42.97258" lon="1.15369">
        <ele>407</ele>
        <time>2025-11-03T22:39:22Z</time>
      </trkpt>
      <trkpt lat="42.9727" lon="1.15376">
        <ele>406</ele>
        <time>2025-11-03T22:39:28Z</time>
      </trkpt>
      <trkpt lat="42.97306" lon="1.15404">
        <ele>403</ele>
        <time>2025-11-03T22:39:49Z</time>
      </trkpt>
      <trkpt lat="42.97345" lon="1.15322">
        <ele>402</ele>
        <time>2025-11-03T22:40:25Z</time>
      </trkpt>
      <trkpt lat="42.97368" lon="1.1533">
        <ele>401</ele>
        <time>2025-11-03T22:40:37Z</time>
      </trkpt>
      <trkpt lat="42.97385" lon="1.15344">
        <ele>400</ele>
        <time>2025-11-03T22:40:47Z</time>
      </trkpt>
      <trkpt lat="42.97432" lon="1.15341">
        <ele>399</ele>
        <time>2025-11-03T22:41:10Z</time>
      </trkpt>
      <trkpt lat="42.97475" lon="1.15303">
        <ele>398</ele>
        <time>2025-11-03T22:41:36Z</time>
      </trkpt>
      <trkpt lat="42.97531" lon="1.15252">
        <ele>397</ele>
        <time>2025-11-03T22:42:09Z</time>
      </trkpt>
      <trkpt lat="42.97567" lon="1.15256">
        <ele>398</ele>
        <time>2025-11-03T22:42:27Z</time>
      </trkpt>
      <trkpt lat="42.97573" lon="1.15246">
        <ele>398</ele>
        <time>2025-11-03T22:42:32Z</time>
      </trkpt>
      <trkpt lat="42.97574" lon="1.15202">
        <ele>397</ele>
        <time>2025-11-03T22:42:48Z</time>
      </trkpt>
      <trkpt lat="42.97634" lon="1.15184">
        <ele>398</ele>
        <time>2025-11-03T22:43:19Z</time>
      </trkpt>
      <trkpt lat="42.97645" lon="1.1521">
        <ele>399</ele>
        <time>2025-11-03T22:43:30Z</time>
      </trkpt>
      <trkpt lat="42.97658" lon="1.15217">
        <ele>399</ele>
        <time>2025-11-03T22:43:37Z</time>
      </trkpt>
      <trkpt lat="42.97656" lon="1.15271">
        <ele>400</ele>
        <time>2025-11-03T22:43:57Z</time>
      </trkpt>
      <trkpt lat="42.97665" lon="1.15329">
        <ele>400</ele>
        <time>2025-11-03T22:44:19Z</time>
      </trkpt>
      <trkpt lat="42.97672" lon="1.15384">
        <ele>401</ele>
        <time>2025-11-03T22:44:39Z</time>
      </trkpt>
      <trkpt lat="42.97683" lon="1.15434">
        <ele>401</ele>
        <time>2025-11-03T22:44:58Z</time>
      </trkpt>
      <trkpt lat="42.97692" lon="1.15459">
        <ele>401</ele>
        <time>2025-11-03T22:45:08Z</time>
      </trkpt>
      <trkpt lat="42.9768" lon="1.15492">
        <ele>400</ele>
        <time>2025-11-03T22:45:22Z</time>
      </trkpt>
      <trkpt lat="42.97687" lon="1.15517">
        <ele>401</ele>
        <time>2025-11-03T22:45:32Z</time>
      </trkpt>
      <trkpt lat="42.97689" lon="1.15543">
        <ele>402</ele>
        <time>2025-11-03T22:45:41Z</time>
      </trkpt>
      <trkpt lat="42.97676" lon="1.15582">
        <ele>403</ele>
        <time>2025-11-03T22:45:57Z</time>
      </trkpt>
      <trkpt lat="42.97678" lon="1.15602">
        <ele>404</ele>
        <time>2025-11-03T22:46:04Z</time>
      </trkpt>
      <trkpt lat="42.977" lon="1.15598">
        <ele>405</ele>
        <time>2025-11-03T22:46:15Z</time>
      </trkpt>
      <trkpt lat="42.97713" lon="1.15603">
        <ele>407</ele>
        <time>2025-11-03T22:46:22Z</time>
      </trkpt>
      <trkpt lat="42.97739" lon="1.15612">
        <ele>410</ele>
        <time>2025-11-03T22:46:36Z</time>
      </trkpt>
      <trkpt lat="42.97811" lon="1.15633">
        <ele>416</ele>
        <time>2025-11-03T22:47:12Z</time>
      </trkpt>
      <trkpt lat="42.97881" lon="1.1565">
        <ele>420</ele>
        <time>2025-11-03T22:47:48Z</time>
      </trkpt>
      <trkpt lat="42.9794" lon="1.15646">
        <ele>420</ele>
        <time>2025-11-03T22:48:18Z</time>
      </trkpt>
      <trkpt lat="42.9797" lon="1.15599">
        <ele>411</ele>
        <time>2025-11-03T22:48:40Z</time>
      </trkpt>
      <trkpt lat="42.97987" lon="1.15554">
        <ele>406</ele>
        <time>2025-11-03T22:48:59Z</time>
      </trkpt>
      <trkpt lat="42.98026" lon="1.15474">
        <ele>403</ele>
        <time>2025-11-03T22:49:34Z</time>
      </trkpt>
      <trkpt lat="42.97974" lon="1.1538">
        <ele>398</ele>
        <time>2025-11-03T22:50:17Z</time>
      </trkpt>
      <trkpt lat="42.98124" lon="1.15233">
        <ele>396</ele>
        <time>2025-11-03T22:51:50Z</time>
      </trkpt>
    </trkseg>
  </trk>
</gpx>